Time;durP1;ratioP1;P1;durP2;ratioP2;P2;SDS_P1;SDS_P2;PMS_P1;PMS_P2;Temp;Humidity;BMP_temperature;BMP_pressure;BME280_temperature;BME280_humidity;BME280_pressure;Samples;Min_cycle;Max_cycle;Signal;HPM_P1;HPM_P2
2023/09/03 00:02:17;;;;;;;3.35;3.22;;;;;;;;;;10427928;28;20292;-73
2023/09/03 00:07:18;;;;;;;2.78;2.63;;;;;;;;;;10425370;28;20904;-71
2023/09/03 00:12:19;;;;;;;2.83;2.55;;;;;;;;;;10416812;28;20218;-71
2023/09/03 00:17:20;;;;;;;2.30;2.20;;;;;;;;;;10429241;28;20223;-72
2023/09/03 00:22:21;;;;;;;2.60;2.50;;;;;;;;;;10428399;28;20683;-72
2023/09/03 00:27:22;;;;;;;2.05;1.92;;;;;;;;;;10424877;28;20212;-70
2023/09/03 00:32:23;;;;;;;2.10;2.10;;;;;;;;;;10427248;28;20228;-71
2023/09/03 00:37:25;;;;;;;1.58;1.58;;;;;;;;;;10421417;28;20709;-72
2023/09/03 00:42:27;;;;;;;1.55;1.55;;;;;;;;;;10417331;28;20225;-75
2023/09/03 00:47:28;;;;;;;2.13;2.03;;;;;;;;;;10430038;28;20214;-71
2023/09/03 00:52:30;;;;;;;2.20;2.05;;;;;;;;;;10425665;28;20222;-69
2023/09/03 00:57:31;;;;;;;2.00;1.90;;;;;;;;;;10430901;28;20226;-71
2023/09/03 01:02:32;;;;;;;2.17;2.08;;;;;;;;;;10406662;28;20696;-69
2023/09/03 01:07:33;;;;;;;1.75;1.60;;;;;;;;;;10425164;28;20634;-71
2023/09/03 01:12:38;;;;;;;2.00;1.75;;;;;;;;;;10426986;28;20226;-72
2023/09/03 01:17:39;;;;;;;1.55;1.40;;;;;;;;;;10423498;28;20304;-73
2023/09/03 01:22:59;;;;;;;1.92;1.75;;;;;;;;;;10430821;28;20214;-71
2023/09/03 01:28:18;;;;;;;1.98;1.88;;;;;;;;;;10418235;28;20219;-71
2023/09/03 01:33:19;;;;;;;1.58;1.58;;;;;;;;;;10422416;28;20214;-71
2023/09/03 01:38:21;;;;;;;4.25;1.60;;;;;;;;;;10421650;28;20314;-72
2023/09/03 01:43:22;;;;;;;1.52;1.45;;;;;;;;;;10407914;28;20212;-71
2023/09/03 01:48:29;;;;;;;2.00;1.60;;;;;;;;;;10416201;28;20230;-70
2023/09/03 01:53:38;;;;;;;1.80;1.70;;;;;;;;;;10407062;28;20590;-74
2023/09/03 01:58:40;;;;;;;1.52;1.50;;;;;;;;;;10406205;28;20226;-70
2023/09/03 02:03:42;;;;;;;1.63;1.52;;;;;;;;;;10401998;28;20207;-71
2023/09/03 02:08:43;;;;;;;1.60;1.48;;;;;;;;;;10406410;28;20306;-69
2023/09/03 02:13:44;;;;;;;1.60;1.50;;;;;;;;;;10419459;28;20214;-71
2023/09/03 02:18:45;;;;;;;2.05;1.70;;;;;;;;;;10423138;28;20234;-70
2023/09/03 02:23:46;;;;;;;2.60;1.70;;;;;;;;;;10371685;28;20261;-70
2023/09/03 02:28:47;;;;;;;1.33;1.23;;;;;;;;;;10394477;28;20208;-74
2023/09/03 02:33:49;;;;;;;1.40;1.30;;;;;;;;;;10396675;28;20222;-71
2023/09/03 02:38:59;;;;;;;1.38;1.27;;;;;;;;;;10384918;28;20246;-71
2023/09/03 02:44:01;;;;;;;1.48;1.48;;;;;;;;;;10405328;28;20679;-72
2023/09/03 02:49:02;;;;;;;1.83;1.70;;;;;;;;;;10425763;28;20253;-75
2023/09/03 02:54:04;;;;;;;1.25;1.25;;;;;;;;;;10421309;28;20214;-70
2023/09/03 02:59:05;;;;;;;1.98;1.92;;;;;;;;;;10387239;28;20261;-73
2023/09/03 03:04:06;;;;;;;1.73;1.65;;;;;;;;;;10403001;28;20221;-71
2023/09/03 03:09:07;;;;;;;1.25;1.25;;;;;;;;;;10421890;28;20743;-70
2023/09/03 03:14:08;;;;;;;2.45;1.80;;;;;;;;;;10394397;28;20265;-72
2023/09/03 03:19:13;;;;;;;1.45;1.30;;;;;;;;;;10389365;28;20215;-71
2023/09/03 03:24:14;;;;;;;1.65;1.40;;;;;;;;;;10384484;28;20238;-71
2023/09/03 03:29:15;;;;;;;2.42;0.98;;;;;;;;;;10403265;28;20246;-73
2023/09/03 03:34:22;;;;;;;1.15;1.15;;;;;;;;;;10409512;28;20230;-72
2023/09/03 03:39:26;;;;;;;1.48;1.10;;;;;;;;;;10400065;28;20211;-69
2023/09/03 03:44:28;;;;;;;1.27;1.27;;;;;;;;;;10399314;28;20278;-70
2023/09/03 03:49:29;;;;;;;1.00;1.00;;;;;;;;;;10402754;28;20211;-71
2023/09/03 03:54:30;;;;;;;1.38;1.38;;;;;;;;;;10386593;28;20215;-70
2023/09/03 03:59:33;;;;;;;1.45;1.35;;;;;;;;;;10383006;28;20298;-72
2023/09/03 04:04:35;;;;;;;1.75;1.67;;;;;;;;;;10409476;28;20622;-71
2023/09/03 04:09:37;;;;;;;1.25;1.13;;;;;;;;;;10401318;28;20208;-71
2023/09/03 04:14:38;;;;;;;1.65;1.60;;;;;;;;;;10409320;28;20226;-70
2023/09/03 04:19:40;;;;;;;1.50;1.50;;;;;;;;;;10390578;28;20915;-71
2023/09/03 04:24:41;;;;;;;1.58;1.10;;;;;;;;;;10423214;28;20233;-71
2023/09/03 04:29:42;;;;;;;1.83;1.60;;;;;;;;;;10407261;28;20276;-72
2023/09/03 04:34:44;;;;;;;1.15;1.15;;;;;;;;;;10390718;28;20215;-71
2023/09/03 04:39:45;;;;;;;1.35;1.35;;;;;;;;;;10409065;28;20212;-71
2023/09/03 04:44:46;;;;;;;1.55;1.45;;;;;;;;;;10391408;28;20211;-73
2023/09/03 04:49:47;;;;;;;1.58;1.27;;;;;;;;;;10425440;28;20242;-68
2023/09/03 04:54:48;;;;;;;1.65;1.38;;;;;;;;;;10400818;28;20223;-70
2023/09/03 04:59:50;;;;;;;0.93;0.93;;;;;;;;;;10425992;28;20257;-71
2023/09/03 05:04:51;;;;;;;2.38;1.02;;;;;;;;;;10412142;28;20673;-73
2023/09/03 05:09:53;;;;;;;1.33;1.33;;;;;;;;;;10407785;28;20277;-70
2023/09/03 05:14:54;;;;;;;2.80;1.33;;;;;;;;;;10407508;28;20230;-70
2023/09/03 05:19:55;;;;;;;1.38;1.27;;;;;;;;;;10409771;28;20211;-70
2023/09/03 05:24:57;;;;;;;2.33;1.40;;;;;;;;;;10422258;28;20253;-75
2023/09/03 05:29:58;;;;;;;2.45;1.08;;;;;;;;;;10407498;28;20616;-70
2023/09/03 05:35:00;;;;;;;1.42;1.20;;;;;;;;;;10409739;28;20211;-71
2023/09/03 05:40:01;;;;;;;1.42;1.42;;;;;;;;;;10419026;28;20210;-69
2023/09/03 05:45:05;;;;;;;2.80;1.77;;;;;;;;;;10423504;28;20215;-72
2023/09/03 05:50:07;;;;;;;3.15;1.98;;;;;;;;;;10392095;28;20210;-72
2023/09/03 05:55:08;;;;;;;1.02;1.00;;;;;;;;;;10405476;28;20215;-70
2023/09/03 06:00:09;;;;;;;1.38;1.27;;;;;;;;;;10406753;28;20211;-73
2023/09/03 06:05:12;;;;;;;0.88;0.88;;;;;;;;;;10425064;28;20194;-72
2023/09/03 06:10:13;;;;;;;2.33;1.30;;;;;;;;;;10405205;28;20378;-70
2023/09/03 06:15:14;;;;;;;1.40;1.30;;;;;;;;;;10395428;28;20228;-70
2023/09/03 06:20:15;;;;;;;1.55;1.02;;;;;;;;;;10370149;28;20222;-68
2023/09/03 06:25:18;;;;;;;4.88;1.30;;;;;;;;;;10377314;28;20183;-70
2023/09/03 06:30:19;;;;;;;1.17;1.10;;;;;;;;;;10380690;28;20697;-70
2023/09/03 06:35:20;;;;;;;0.85;0.85;;;;;;;;;;10381977;28;21410;-71
2023/09/03 06:40:21;;;;;;;1.67;1.23;;;;;;;;;;10380469;28;20267;-71
2023/09/03 06:45:22;;;;;;;0.85;0.85;;;;;;;;;;10380499;28;20207;-71
2023/09/03 06:50:23;;;;;;;1.95;1.20;;;;;;;;;;10360886;28;20507;-70
2023/09/03 06:55:24;;;;;;;1.38;0.98;;;;;;;;;;10382734;28;20584;-70
2023/09/03 07:00:25;;;;;;;0.70;0.70;;;;;;;;;;10354559;28;20223;-71
2023/09/03 07:05:26;;;;;;;1.23;1.17;;;;;;;;;;10348654;28;20943;-71
2023/09/03 07:10:27;;;;;;;2.53;1.10;;;;;;;;;;10362892;28;20243;-73
2023/09/03 07:15:29;;;;;;;1.27;1.20;;;;;;;;;;10392099;28;20291;-70
2023/09/03 07:20:30;;;;;;;1.30;1.20;;;;;;;;;;10419819;28;20675;-72
2023/09/03 07:25:33;;;;;;;1.17;1.17;;;;;;;;;;10430064;28;20363;-72
2023/09/03 07:30:34;;;;;;;1.52;1.20;;;;;;;;;;10428644;28;20215;-70
2023/09/03 07:35:35;;;;;;;2.75;1.00;;;;;;;;;;10429941;28;20403;-70
2023/09/03 07:40:39;;;;;;;4.78;1.10;;;;;;;;;;10425181;28;20233;-70
2023/09/03 07:45:40;;;;;;;0.75;0.75;;;;;;;;;;10425505;28;20262;-70
2023/09/03 07:50:42;;;;;;;0.60;0.60;;;;;;;;;;10434648;28;20688;-71
2023/09/03 07:55:43;;;;;;;2.60;0.68;;;;;;;;;;10419331;28;20230;-72
2023/09/03 08:00:44;;;;;;;0.50;0.50;;;;;;;;;;10432744;28;20733;-72
2023/09/03 08:05:45;;;;;;;2.42;0.50;;;;;;;;;;10429783;28;20198;-71
2023/09/03 08:10:46;;;;;;;5.22;0.85;;;;;;;;;;10430251;28;20223;-72
2023/09/03 08:15:47;;;;;;;0.43;0.43;;;;;;;;;;10427922;28;20306;-70
2023/09/03 08:20:49;;;;;;;1.75;0.60;;;;;;;;;;10412148;28;20606;-73
2023/09/03 08:25:50;;;;;;;0.55;0.50;;;;;;;;;;10407223;28;20215;-73
2023/09/03 08:30:51;;;;;;;0.57;0.43;;;;;;;;;;10393459;28;20292;-71
2023/09/03 08:35:54;;;;;;;0.40;0.40;;;;;;;;;;10414202;28;20587;-72
2023/09/03 08:40:55;;;;;;;1.42;1.13;;;;;;;;;;10428160;28;20210;-73
2023/09/03 08:45:57;;;;;;;0.50;0.50;;;;;;;;;;10427390;28;20230;-70
2023/09/03 08:50:58;;;;;;;2.72;0.60;;;;;;;;;;10399708;28;20257;-72
2023/09/03 08:55:59;;;;;;;1.80;0.40;;;;;;;;;;10406661;28;20211;-72
2023/09/03 09:01:00;;;;;;;0.50;0.40;;;;;;;;;;10406890;28;20306;-72
2023/09/03 09:06:03;;;;;;;0.40;0.40;;;;;;;;;;10416202;28;20219;-70
2023/09/03 09:11:05;;;;;;;0.73;0.40;;;;;;;;;;10428607;28;20591;-70
2023/09/03 09:16:06;;;;;;;1.85;0.30;;;;;;;;;;10409404;28;20489;-74
2023/09/03 09:21:07;;;;;;;0.38;0.32;;;;;;;;;;10389473;28;20222;-72
2023/09/03 09:26:16;;;;;;;0.63;0.38;;;;;;;;;;10410357;28;20217;-70
2023/09/03 09:31:17;;;;;;;0.38;0.38;;;;;;;;;;10419895;28;20219;-72
2023/09/03 09:36:18;;;;;;;1.48;0.30;;;;;;;;;;10423832;28;20252;-72
2023/09/03 09:41:23;;;;;;;0.30;0.30;;;;;;;;;;10426560;28;20219;-73
2023/09/03 09:46:28;;;;;;;0.40;0.40;;;;;;;;;;10407106;28;20213;-71
2023/09/03 09:51:30;;;;;;;0.20;0.20;;;;;;;;;;10422908;28;20643;-74
2023/09/03 09:56:34;;;;;;;0.35;0.30;;;;;;;;;;10388284;28;20216;-73
2023/09/03 10:01:43;;;;;;;0.20;0.20;;;;;;;;;;10406317;28;20214;-71
2023/09/03 10:06:44;;;;;;;0.20;0.20;;;;;;;;;;10423747;28;20203;-73
2023/09/03 10:11:45;;;;;;;0.60;0.45;;;;;;;;;;10407900;28;20231;-72
2023/09/03 10:16:47;;;;;;;0.38;0.28;;;;;;;;;;10405249;28;20268;-73
2023/09/03 10:21:49;;;;;;;0.30;0.30;;;;;;;;;;10391821;28;20267;-69
2023/09/03 10:26:53;;;;;;;0.20;0.20;;;;;;;;;;10425617;28;20219;-71
2023/09/03 10:31:55;;;;;;;0.30;0.30;;;;;;;;;;10391374;28;20226;-72
2023/09/03 10:37:06;;;;;;;0.20;0.20;;;;;;;;;;10422261;28;20210;-71
2023/09/03 10:42:16;;;;;;;0.65;0.28;;;;;;;;;;10393873;28;20211;-71
2023/09/03 10:47:18;;;;;;;0.20;0.20;;;;;;;;;;10411183;28;20522;-73
2023/09/03 10:52:28;;;;;;;0.73;0.20;;;;;;;;;;10405461;28;20276;-72
2023/09/03 10:57:31;;;;;;;0.28;0.28;;;;;;;;;;10406375;28;20218;-72
2023/09/03 11:02:33;;;;;;;0.57;0.57;;;;;;;;;;10404217;28;20676;-69
2023/09/03 11:07:34;;;;;;;0.25;0.20;;;;;;;;;;10389881;28;20265;-77
2023/09/03 11:12:35;;;;;;;0.95;0.20;;;;;;;;;;10407418;28;21572;-72
2023/09/03 11:17:36;;;;;;;0.90;0.20;;;;;;;;;;10393304;28;20693;-72
2023/09/03 11:22:38;;;;;;;0.10;0.10;;;;;;;;;;10409143;28;20305;-73
2023/09/03 11:27:57;;;;;;;0.20;0.20;;;;;;;;;;10424438;28;20219;-73
2023/09/03 11:32:58;;;;;;;0.20;0.20;;;;;;;;;;10422610;28;20211;-75
2023/09/03 11:37:59;;;;;;;0.20;0.20;;;;;;;;;;10406955;28;20586;-72
2023/09/03 11:43:00;;;;;;;0.20;0.20;;;;;;;;;;10408290;28;20199;-74
2023/09/03 11:48:06;;;;;;;0.65;0.20;;;;;;;;;;10409222;28;20293;-72
2023/09/03 11:53:09;;;;;;;0.57;0.20;;;;;;;;;;10396235;28;20244;-71
2023/09/03 11:58:12;;;;;;;0.52;0.20;;;;;;;;;;10424425;28;20852;-71
2023/09/03 12:03:14;;;;;;;0.20;0.20;;;;;;;;;;10416824;28;20214;-70
2023/09/03 12:08:15;;;;;;;0.30;0.30;;;;;;;;;;10427407;28;20275;-73
2023/09/03 12:13:30;;;;;;;0.10;0.10;;;;;;;;;;10428403;28;20293;-73
2023/09/03 12:18:31;;;;;;;0.30;0.30;;;;;;;;;;10395209;28;20767;-76
2023/09/03 12:23:34;;;;;;;0.20;0.20;;;;;;;;;;10392476;28;20611;-73
2023/09/03 12:28:36;;;;;;;0.20;0.20;;;;;;;;;;10410323;28;20230;-72
2023/09/03 12:33:47;;;;;;;0.25;0.17;;;;;;;;;;10427648;28;20218;-73
2023/09/03 12:38:52;;;;;;;0.20;0.20;;;;;;;;;;10420003;28;20218;-76
2023/09/03 12:43:54;;;;;;;0.20;0.20;;;;;;;;;;10431717;28;20215;-76
2023/09/03 12:48:55;;;;;;;1.10;0.30;;;;;;;;;;10402876;28;20585;-73
2023/09/03 12:53:56;;;;;;;0.17;0.17;;;;;;;;;;10419213;28;20298;-73
2023/09/03 12:59:04;;;;;;;0.28;0.28;;;;;;;;;;10430638;28;20728;-72
2023/09/03 13:04:08;;;;;;;0.20;0.20;;;;;;;;;;10435564;28;20206;-70
2023/09/03 13:09:10;;;;;;;0.20;0.20;;;;;;;;;;10401296;28;20267;-75
2023/09/03 13:14:11;;;;;;;0.20;0.20;;;;;;;;;;10401378;28;20231;-74
2023/09/03 13:19:12;;;;;;;0.22;0.22;;;;;;;;;;10418301;28;20207;-74
2023/09/03 13:24:13;;;;;;;0.30;0.30;;;;;;;;;;10432490;28;20585;-72
2023/09/03 13:29:14;;;;;;;0.20;0.20;;;;;;;;;;10433334;28;20219;-74
2023/09/03 13:34:15;;;;;;;0.20;0.20;;;;;;;;;;10415030;28;20225;-74
2023/09/03 13:39:16;;;;;;;0.20;0.20;;;;;;;;;;10433819;28;20220;-73
2023/09/03 13:44:17;;;;;;;0.30;0.30;;;;;;;;;;10425434;28;20230;-73
2023/09/03 13:49:18;;;;;;;0.30;0.30;;;;;;;;;;10416203;28;20241;-74
2023/09/03 13:54:20;;;;;;;0.30;0.30;;;;;;;;;;10411428;28;20215;-74
2023/09/03 13:59:21;;;;;;;0.20;0.20;;;;;;;;;;10428815;28;20215;-76
2023/09/03 14:04:22;;;;;;;0.30;0.30;;;;;;;;;;10433838;28;20237;-74
2023/09/03 14:09:23;;;;;;;0.20;0.20;;;;;;;;;;10397851;28;20211;-76
2023/09/03 14:14:24;;;;;;;0.30;0.30;;;;;;;;;;10402253;28;20704;-75
2023/09/03 14:19:25;;;;;;;0.22;0.22;;;;;;;;;;10417784;28;20218;-78
2023/09/03 14:24:26;;;;;;;0.43;0.20;;;;;;;;;;10420866;28;20222;-76
2023/09/03 14:29:27;;;;;;;0.20;0.20;;;;;;;;;;10429837;28;20242;-77
2023/09/03 14:34:29;;;;;;;0.30;0.30;;;;;;;;;;10413912;28;20640;-76
2023/09/03 14:39:30;;;;;;;0.30;0.30;;;;;;;;;;10427329;28;20207;-72
2023/09/03 14:44:31;;;;;;;0.30;0.30;;;;;;;;;;10405316;28;20211;-76
2023/09/03 14:49:37;;;;;;;0.30;0.30;;;;;;;;;;10391828;28;20286;-74
2023/09/03 14:54:38;;;;;;;0.20;0.20;;;;;;;;;;10410818;28;20335;-75
2023/09/03 14:59:39;;;;;;;0.30;0.30;;;;;;;;;;10430537;28;20298;-73
2023/09/03 15:04:40;;;;;;;0.75;0.25;;;;;;;;;;10399703;28;20256;-76
2023/09/03 15:09:41;;;;;;;0.30;0.30;;;;;;;;;;10414614;28;20215;-71
2023/09/03 15:14:43;;;;;;;0.22;0.20;;;;;;;;;;10427609;28;20329;-75
2023/09/03 15:19:44;;;;;;;0.30;0.30;;;;;;;;;;10411415;28;20215;-75
2023/09/03 15:24:45;;;;;;;1.65;0.30;;;;;;;;;;10400025;28;20248;-75
2023/09/03 15:29:46;;;;;;;0.82;0.40;;;;;;;;;;10404841;28;20215;-72
2023/09/03 15:34:47;;;;;;;0.30;0.30;;;;;;;;;;10408729;28;20214;-74
2023/09/03 15:39:48;;;;;;;0.30;0.30;;;;;;;;;;10397012;28;20759;-74
2023/09/03 15:44:49;;;;;;;0.30;0.30;;;;;;;;;;10423974;28;20222;-73
2023/09/03 15:49:50;;;;;;;0.30;0.30;;;;;;;;;;10424340;28;20697;-72
2023/09/03 15:54:52;;;;;;;0.38;0.38;;;;;;;;;;10406351;28;20632;-74
2023/09/03 15:59:53;;;;;;;0.30;0.30;;;;;;;;;;10425983;28;20560;-77
2023/09/03 16:04:54;;;;;;;0.32;0.32;;;;;;;;;;10406768;28;20202;-75
2023/09/03 16:09:55;;;;;;;0.30;0.30;;;;;;;;;;10432130;28;20685;-75
2023/09/03 16:14:57;;;;;;;0.30;0.30;;;;;;;;;;10413148;28;20683;-75
2023/09/03 16:19:58;;;;;;;0.35;0.32;;;;;;;;;;10431991;28;20219;-76
2023/09/03 16:24:59;;;;;;;0.40;0.40;;;;;;;;;;10423776;28;20203;-70
2023/09/03 16:30:00;;;;;;;1.23;0.30;;;;;;;;;;10424539;28;20217;-70
2023/09/03 16:35:02;;;;;;;0.30;0.30;;;;;;;;;;10400249;28;20456;-71
2023/09/03 16:40:09;;;;;;;2.17;0.20;;;;;;;;;;10434775;28;20199;-72
2023/09/03 16:45:10;;;;;;;0.38;0.38;;;;;;;;;;10412066;28;20238;-73
2023/09/03 16:50:11;;;;;;;0.30;0.30;;;;;;;;;;10415738;28;20211;-72
2023/09/03 16:55:12;;;;;;;1.85;0.40;;;;;;;;;;10427341;28;20398;-72
2023/09/03 17:00:13;;;;;;;0.50;0.50;;;;;;;;;;10404503;28;20215;-74
2023/09/03 17:05:15;;;;;;;0.50;0.50;;;;;;;;;;10411349;28;20193;-71
2023/09/03 17:10:16;;;;;;;0.70;0.38;;;;;;;;;;10394856;28;20632;-71
2023/09/03 17:15:17;;;;;;;0.40;0.40;;;;;;;;;;10423765;28;20245;-73
2023/09/03 17:20:21;;;;;;;0.40;0.40;;;;;;;;;;10397898;28;20211;-73
2023/09/03 17:25:22;;;;;;;0.22;0.22;;;;;;;;;;10415109;28;20223;-71
2023/09/03 17:30:23;;;;;;;0.30;0.30;;;;;;;;;;10415707;28;20271;-70
2023/09/03 17:35:24;;;;;;;0.38;0.38;;;;;;;;;;10410884;28;20552;-75
2023/09/03 17:40:27;;;;;;;0.38;0.35;;;;;;;;;;10430487;28;20203;-70
2023/09/03 17:45:28;;;;;;;0.73;0.22;;;;;;;;;;10426843;28;20505;-70
2023/09/03 17:50:29;;;;;;;0.32;0.32;;;;;;;;;;10410170;28;20241;-74
2023/09/03 17:55:30;;;;;;;0.40;0.40;;;;;;;;;;10411912;28;20222;-73
2023/09/03 18:00:31;;;;;;;0.22;0.22;;;;;;;;;;10422488;28;20229;-70
2023/09/03 18:05:32;;;;;;;0.30;0.30;;;;;;;;;;10430958;28;20540;-70
2023/09/03 18:10:34;;;;;;;0.30;0.30;;;;;;;;;;10409196;28;20309;-74
2023/09/03 18:15:35;;;;;;;0.40;0.40;;;;;;;;;;10407206;28;20600;-73
2023/09/03 18:20:36;;;;;;;0.30;0.30;;;;;;;;;;10408960;28;20542;-75
2023/09/03 18:25:37;;;;;;;0.30;0.30;;;;;;;;;;10392447;28;20714;-69
2023/09/03 18:30:38;;;;;;;0.40;0.40;;;;;;;;;;10408787;28;20223;-72
2023/09/03 18:35:39;;;;;;;0.95;0.30;;;;;;;;;;10402739;28;20229;-72
2023/09/03 18:40:41;;;;;;;0.40;0.40;;;;;;;;;;10411039;28;20215;-74
2023/09/03 18:45:42;;;;;;;0.40;0.40;;;;;;;;;;10423674;28;20246;-73
2023/09/03 18:50:43;;;;;;;0.40;0.40;;;;;;;;;;10395137;28;20227;-74
2023/09/03 18:55:44;;;;;;;0.65;0.40;;;;;;;;;;10406604;28;20430;-72
2023/09/03 19:00:45;;;;;;;0.40;0.40;;;;;;;;;;10405678;28;20776;-73
2023/09/03 19:05:47;;;;;;;0.40;0.40;;;;;;;;;;10421757;28;20225;-74
2023/09/03 19:10:57;;;;;;;0.32;0.32;;;;;;;;;;10427256;28;20232;-77
2023/09/03 19:15:59;;;;;;;0.40;0.40;;;;;;;;;;10377390;28;20250;-71
2023/09/03 19:21:00;;;;;;;0.50;0.50;;;;;;;;;;10381212;28;20211;-71
2023/09/03 19:26:01;;;;;;;0.40;0.40;;;;;;;;;;10384187;28;20211;-74
2023/09/03 19:31:02;;;;;;;0.60;0.60;;;;;;;;;;10364124;28;20207;-74
2023/09/03 19:36:04;;;;;;;0.30;0.30;;;;;;;;;;10360183;28;20250;-67
2023/09/03 19:41:05;;;;;;;0.65;0.60;;;;;;;;;;10366314;28;20215;-73
2023/09/03 19:46:06;;;;;;;0.95;0.90;;;;;;;;;;10391764;28;20214;-73
2023/09/03 19:51:07;;;;;;;0.65;0.65;;;;;;;;;;10370317;28;20823;-72
2023/09/03 19:56:16;;;;;;;0.52;0.52;;;;;;;;;;10387420;28;20323;-72
2023/09/03 20:01:17;;;;;;;1.15;0.47;;;;;;;;;;10388568;28;20615;-70
2023/09/03 20:06:19;;;;;;;0.73;0.60;;;;;;;;;;10386185;28;20207;-75
2023/09/03 20:11:20;;;;;;;0.40;0.40;;;;;;;;;;10390541;28;20215;-72
2023/09/03 20:16:21;;;;;;;0.40;0.40;;;;;;;;;;10375751;28;20223;-72
2023/09/03 20:21:23;;;;;;;0.40;0.40;;;;;;;;;;10392755;28;20316;-75
2023/09/03 20:26:26;;;;;;;0.50;0.50;;;;;;;;;;10374203;28;20617;-76
2023/09/03 20:31:27;;;;;;;0.40;0.40;;;;;;;;;;10387525;28;20220;-72
2023/09/03 20:36:29;;;;;;;0.40;0.40;;;;;;;;;;10377543;28;20266;-75
2023/09/03 20:41:30;;;;;;;1.48;0.50;;;;;;;;;;10389581;28;20219;-76
2023/09/03 20:46:31;;;;;;;0.40;0.40;;;;;;;;;;10364744;28;20298;-69
2023/09/03 20:51:32;;;;;;;0.32;0.32;;;;;;;;;;10379924;28;20666;-74
2023/09/03 20:56:34;;;;;;;0.30;0.30;;;;;;;;;;10370648;28;20214;-76
2023/09/03 21:01:35;;;;;;;0.60;0.60;;;;;;;;;;10352153;28;20220;-73
2023/09/03 21:06:36;;;;;;;0.77;0.60;;;;;;;;;;10356420;28;20219;-73
2023/09/03 21:11:37;;;;;;;0.50;0.50;;;;;;;;;;10367945;28;20224;-73
2023/09/03 21:16:38;;;;;;;0.55;0.40;;;;;;;;;;10385965;28;20216;-77
2023/09/03 21:21:39;;;;;;;0.32;0.32;;;;;;;;;;10361383;28;20211;-73
2023/09/03 21:26:42;;;;;;;0.30;0.30;;;;;;;;;;10376632;28;20212;-77
2023/09/03 21:31:43;;;;;;;0.65;0.60;;;;;;;;;;10359862;28;20227;-75
2023/09/03 21:36:44;;;;;;;0.52;0.52;;;;;;;;;;10369009;28;20913;-72
2023/09/03 21:41:45;;;;;;;0.50;0.50;;;;;;;;;;10375655;28;20231;-73
2023/09/03 21:46:46;;;;;;;0.40;0.40;;;;;;;;;;10386648;28;20223;-74
2023/09/03 21:51:47;;;;;;;0.45;0.45;;;;;;;;;;10367316;28;20220;-72
2023/09/03 21:56:48;;;;;;;1.38;0.73;;;;;;;;;;10370529;28;21015;-76
2023/09/03 22:01:49;;;;;;;0.50;0.50;;;;;;;;;;10379909;28;20430;-75
2023/09/03 22:06:50;;;;;;;0.40;0.40;;;;;;;;;;10347787;28;20219;-76
2023/09/03 22:11:52;;;;;;;0.70;0.70;;;;;;;;;;10370346;28;20765;-70
2023/09/03 22:16:53;;;;;;;0.50;0.50;;;;;;;;;;10392409;28;20215;-75
2023/09/03 22:21:55;;;;;;;0.82;0.70;;;;;;;;;;10370839;28;20629;-72
2023/09/03 22:26:56;;;;;;;0.93;0.70;;;;;;;;;;10394085;28;20205;-76
2023/09/03 22:31:58;;;;;;;1.30;0.70;;;;;;;;;;10396103;28;20856;-70
2023/09/03 22:36:59;;;;;;;0.60;0.60;;;;;;;;;;10374292;28;20203;-71
2023/09/03 22:42:00;;;;;;;0.60;0.60;;;;;;;;;;10376163;28;20310;-73
2023/09/03 22:47:02;;;;;;;0.50;0.50;;;;;;;;;;10365167;28;20211;-73
2023/09/03 22:52:03;;;;;;;1.63;0.55;;;;;;;;;;10377995;28;20232;-72
2023/09/03 22:57:05;;;;;;;0.68;0.68;;;;;;;;;;10369657;28;20305;-76
2023/09/03 23:02:06;;;;;;;0.60;0.60;;;;;;;;;;10386519;28;20239;-72
2023/09/03 23:07:07;;;;;;;0.40;0.40;;;;;;;;;;10384430;28;20215;-74
2023/09/03 23:12:08;;;;;;;0.65;0.52;;;;;;;;;;10383651;28;20317;-73
2023/09/03 23:17:10;;;;;;;0.43;0.43;;;;;;;;;;10408351;28;20231;-75
2023/09/03 23:22:12;;;;;;;0.50;0.50;;;;;;;;;;10423190;28;20243;-70
2023/09/03 23:27:13;;;;;;;0.55;0.55;;;;;;;;;;10424073;28;20221;-73
2023/09/03 23:32:14;;;;;;;0.40;0.40;;;;;;;;;;10405851;28;20214;-74
2023/09/03 23:37:15;;;;;;;0.93;0.30;;;;;;;;;;10424022;28;20261;-73
2023/09/03 23:42:16;;;;;;;0.70;0.70;;;;;;;;;;10407895;28;20293;-74
2023/09/03 23:47:17;;;;;;;0.40;0.40;;;;;;;;;;10421776;28;20870;-72
2023/09/03 23:52:18;;;;;;;0.50;0.50;;;;;;;;;;10420158;28;20217;-76
2023/09/03 23:57:19;;;;;;;0.40;0.40;;;;;;;;;;10422387;28;20207;-72
